createdAt,value
2022-12-25T00:02:41.139Z,9.67
2022-12-25T00:07:44.395Z,10.03
2022-12-25T00:12:47.378Z,9.40
2022-12-25T00:17:54.031Z,10.50
2022-12-25T00:22:57.484Z,9.97
2022-12-25T00:28:00.414Z,9.47
2022-12-25T00:33:04.935Z,10.77
2022-12-25T00:38:08.057Z,10.00
2022-12-25T00:43:11.434Z,9.70
2022-12-25T00:48:15.814Z,9.90
2022-12-25T00:53:19.154Z,9.43
2022-12-25T00:58:25.482Z,10.00
2022-12-25T01:03:30.115Z,9.47
2022-12-25T01:08:34.842Z,8.40
2022-12-25T01:13:38.838Z,9.07
2022-12-25T01:18:43.442Z,9.37
2022-12-25T01:23:46.480Z,10.70
2022-12-25T01:28:51.629Z,9.63
2022-12-25T01:33:56.467Z,10.20
2022-12-25T01:39:00.209Z,10.70
2022-12-25T01:44:07.509Z,10.20
2022-12-25T01:49:16.164Z,10.50
2022-12-25T01:54:23.683Z,10.67
2022-12-25T01:59:28.568Z,10.30
2022-12-25T02:04:39.639Z,9.53
2022-12-25T02:09:43.258Z,9.97
2022-12-25T02:14:47.563Z,9.77
2022-12-25T02:20:25.219Z,10.03
2022-12-25T02:25:43.595Z,10.10
2022-12-25T02:31:00.564Z,10.77
2022-12-25T02:36:08.840Z,11.37
2022-12-25T02:41:17.029Z,11.13
2022-12-25T02:46:53.696Z,11.30
2022-12-25T02:52:18.927Z,10.87
2022-12-25T02:57:45.289Z,11.47
2022-12-25T03:03:08.335Z,11.20
2022-12-25T03:08:15.981Z,10.10
2022-12-25T03:13:21.859Z,10.47
2022-12-25T03:18:28.244Z,11.00
2022-12-25T03:23:49.856Z,10.90
2022-12-25T03:28:53.208Z,10.27
2022-12-25T03:34:27.475Z,9.40
2022-12-25T03:39:56.076Z,9.27
2022-12-25T03:45:22.297Z,8.93
2022-12-25T03:50:48.417Z,9.10
2022-12-25T03:56:09.875Z,8.53
2022-12-25T04:01:30.697Z,8.20
2022-12-25T04:06:52.585Z,7.77
2022-12-25T04:12:13.379Z,8.87
2022-12-25T04:17:34.207Z,8.87
2022-12-25T04:22:55.929Z,7.33
2022-12-25T04:28:20.437Z,7.40
2022-12-25T04:33:41.047Z,7.40
2022-12-25T04:38:45.384Z,6.70
2022-12-25T04:43:48.328Z,5.80
2022-12-25T04:48:51.304Z,6.00
2022-12-25T04:53:55.972Z,5.97
2022-12-25T04:58:59.003Z,5.57
2022-12-25T05:04:02.148Z,5.23
2022-12-25T05:09:06.654Z,5.73
2022-12-25T05:14:09.660Z,6.07
2022-12-25T05:19:12.882Z,5.40
2022-12-25T05:24:17.729Z,5.57
2022-12-25T05:29:20.825Z,4.87
2022-12-25T05:34:24.011Z,4.63
2022-12-25T05:39:28.395Z,4.53
2022-12-25T05:44:31.440Z,4.80
2022-12-25T05:49:34.525Z,4.43
2022-12-25T05:54:38.957Z,4.70
2022-12-25T05:59:41.971Z,4.50
2022-12-25T06:04:45.104Z,4.77
2022-12-25T06:09:49.622Z,5.10
2022-12-25T06:14:54.689Z,4.30
2022-12-25T06:19:57.753Z,4.30
2022-12-25T06:25:02.202Z,4.53
2022-12-25T06:30:06.316Z,4.53
2022-12-25T06:35:09.800Z,4.27
2022-12-25T06:40:14.900Z,4.70
2022-12-25T06:45:18.037Z,4.00
2022-12-25T06:50:21.075Z,3.87
2022-12-25T06:55:25.366Z,4.27
2022-12-25T07:00:28.419Z,3.80
2022-12-25T07:05:31.417Z,4.00
2022-12-25T07:10:35.850Z,4.03
2022-12-25T07:15:38.835Z,4.30
2022-12-25T07:20:42.149Z,4.07
2022-12-25T07:25:57.594Z,4.43
2022-12-25T07:31:05.444Z,4.70
2022-12-25T07:36:12.621Z,3.70
2022-12-25T07:41:18.111Z,4.10
2022-12-25T07:46:21.806Z,5.60
2022-12-25T07:51:30.115Z,4.27
2022-12-25T07:56:34.846Z,3.90
2022-12-25T08:01:38.301Z,4.40
2022-12-25T08:06:41.578Z,4.57
2022-12-25T08:11:48.016Z,4.60
2022-12-25T08:16:51.078Z,4.50
2022-12-25T08:21:54.157Z,4.67
2022-12-25T08:26:58.699Z,4.60
2022-12-25T08:32:02.403Z,3.70
2022-12-25T08:37:05.616Z,4.00
2022-12-25T08:42:10.140Z,3.73
2022-12-25T08:47:13.294Z,4.33
2022-12-25T08:52:16.588Z,4.03
2022-12-25T08:57:21.116Z,4.63
2022-12-25T09:02:24.700Z,4.80
2022-12-25T09:07:27.849Z,6.07
2022-12-25T09:12:32.194Z,6.63
2022-12-25T09:17:35.619Z,6.37
2022-12-25T09:22:39.050Z,6.17
2022-12-25T09:27:44.147Z,7.60
2022-12-25T09:32:47.276Z,6.30
2022-12-25T09:37:50.309Z,6.80
2022-12-25T09:42:57.788Z,6.40
2022-12-25T09:48:01.389Z,7.87
2022-12-25T09:53:08.763Z,5.47
2022-12-25T09:58:14.624Z,6.27
2022-12-25T10:03:33.018Z,5.63
2022-12-25T10:08:51.088Z,5.60
2022-12-25T10:14:11.883Z,5.83
2022-12-25T10:19:47.323Z,5.57
2022-12-25T10:24:52.980Z,4.70
2022-12-25T10:29:57.664Z,4.87
2022-12-25T10:35:00.757Z,5.00
2022-12-25T10:40:04.552Z,5.20
2022-12-25T10:45:10.669Z,6.00
2022-12-25T10:50:20.311Z,6.43
2022-12-25T10:55:28.815Z,5.43
2022-12-25T11:00:34.765Z,6.10
2022-12-25T11:05:38.025Z,6.20
2022-12-25T11:10:44.274Z,6.63
2022-12-25T11:15:50.336Z,6.27
2022-12-25T11:20:55.407Z,6.17
2022-12-25T11:26:00.247Z,6.73
2022-12-25T11:31:09.921Z,6.83
2022-12-25T11:36:20.349Z,6.40
2022-12-25T11:41:29.869Z,5.97
2022-12-25T11:46:42.033Z,6.30
2022-12-25T11:51:48.835Z,6.80
2022-12-25T11:56:52.232Z,7.67
2022-12-25T12:02:01.294Z,7.40
2022-12-25T12:07:10.113Z,6.83
2022-12-25T12:12:19.547Z,10.53
2022-12-25T12:17:26.087Z,8.20
2022-12-25T12:22:29.871Z,8.10
2022-12-25T12:27:37.826Z,8.20
2022-12-25T12:32:45.151Z,8.00
2022-12-25T12:37:52.533Z,8.10
2022-12-25T12:42:56.821Z,8.57
2022-12-25T12:48:01.541Z,7.50
2022-12-25T12:53:28.684Z,12.40
2022-12-25T12:58:35.202Z,9.60
2022-12-25T13:03:55.659Z,8.80
2022-12-25T13:09:08.003Z,8.13
2022-12-25T13:14:16.803Z,8.20
2022-12-25T13:19:23.156Z,8.53
2022-12-25T13:24:28.534Z,9.03
2022-12-25T13:29:32.735Z,8.93
2022-12-25T13:34:39.675Z,8.80
2022-12-25T13:39:49.843Z,10.73
2022-12-25T13:44:56.062Z,11.80
2022-12-25T13:50:03.160Z,11.53
2022-12-25T13:55:13.390Z,11.13
2022-12-25T14:00:22.082Z,11.33
2022-12-25T14:05:33.471Z,13.17
2022-12-25T14:10:43.038Z,11.50
2022-12-25T14:15:47.935Z,12.00
2022-12-25T14:21:01.232Z,12.43
2022-12-25T14:26:04.576Z,16.57
2022-12-25T14:31:07.975Z,22.97
2022-12-25T14:36:14.587Z,16.13
2022-12-25T14:41:33.423Z,14.83
2022-12-25T14:46:37.264Z,12.37
2022-12-25T14:51:44.384Z,14.37
2022-12-25T14:56:49.426Z,13.50
2022-12-25T15:01:56.018Z,14.33
2022-12-25T15:07:07.362Z,13.03
2022-12-25T15:12:10.624Z,13.37
2022-12-25T15:17:24.584Z,14.37
2022-12-25T15:22:47.784Z,13.00
2022-12-25T15:27:52.923Z,13.77
2022-12-25T15:32:56.857Z,13.27
2022-12-25T15:38:01.319Z,11.73
2022-12-25T15:43:11.380Z,12.10
2022-12-25T15:48:24.063Z,12.77
2022-12-25T15:53:28.639Z,12.13
2022-12-25T15:58:31.568Z,13.00
2022-12-25T16:03:34.824Z,16.87
2022-12-25T16:08:39.557Z,13.80
2022-12-25T16:13:42.503Z,16.13
2022-12-25T16:18:47.756Z,14.53
2022-12-25T16:23:52.522Z,17.87
2022-12-25T16:28:55.575Z,13.90
2022-12-25T16:33:58.781Z,17.23
2022-12-25T16:39:03.393Z,14.97
2022-12-25T16:44:10.164Z,16.07
2022-12-25T16:49:13.221Z,16.67
2022-12-25T16:54:17.745Z,16.60
2022-12-25T16:59:20.751Z,15.67
2022-12-25T17:04:23.872Z,18.07
2022-12-25T17:09:28.317Z,17.37
2022-12-25T17:14:31.459Z,50.03
2022-12-25T17:19:34.639Z,43.03
2022-12-25T17:24:41.431Z,40.57
2022-12-25T17:29:45.167Z,30.63
2022-12-25T17:34:48.321Z,31.43
2022-12-25T17:39:52.716Z,34.10
2022-12-25T17:44:55.714Z,32.30
2022-12-25T17:49:58.867Z,24.70
2022-12-25T17:55:03.398Z,24.23
2022-12-25T18:00:08.427Z,33.17
2022-12-25T18:05:11.566Z,50.20
2022-12-25T18:10:16.084Z,29.23
2022-12-25T18:15:19.177Z,19.60
2022-12-25T18:20:23.475Z,20.33
2022-12-25T18:25:27.938Z,20.00
2022-12-25T18:30:31.050Z,32.27
2022-12-25T18:35:35.485Z,22.63
2022-12-25T18:40:43.464Z,26.97
2022-12-25T18:45:46.509Z,26.67
2022-12-25T18:50:56.358Z,32.87
2022-12-25T18:56:07.825Z,32.23
2022-12-25T19:01:12.417Z,28.90
2022-12-25T19:06:18.647Z,27.90
2022-12-25T19:11:24.155Z,23.80
2022-12-25T19:16:27.324Z,23.30
2022-12-25T19:21:30.832Z,26.50
2022-12-25T19:26:36.024Z,24.17
2022-12-25T19:31:39.448Z,25.63
2022-12-25T19:36:42.655Z,24.13
2022-12-25T19:41:47.144Z,25.83
2022-12-25T19:46:50.646Z,21.90
2022-12-25T19:51:53.823Z,23.30
2022-12-25T19:56:58.474Z,26.20
2022-12-25T20:02:01.723Z,21.10
2022-12-25T20:07:04.820Z,25.00
2022-12-25T20:12:11.234Z,23.70
2022-12-25T20:17:16.217Z,23.43
2022-12-25T20:22:19.411Z,22.47
2022-12-25T20:27:23.839Z,26.03
2022-12-25T20:32:26.772Z,28.47
2022-12-25T20:37:29.955Z,24.70
2022-12-25T20:42:34.345Z,21.27
2022-12-25T20:47:38.506Z,23.87
2022-12-25T20:52:41.548Z,24.37
2022-12-25T20:57:45.993Z,26.27
2022-12-25T21:02:49.202Z,29.47
2022-12-25T21:07:52.442Z,23.27
2022-12-25T21:12:56.812Z,24.53
2022-12-25T21:18:00.129Z,21.87
2022-12-25T21:23:03.191Z,19.97
2022-12-25T21:28:07.723Z,18.10
2022-12-25T21:33:29.925Z,19.57
2022-12-25T21:38:34.289Z,17.57
2022-12-25T21:43:39.893Z,15.43
2022-12-25T21:48:43.649Z,16.30
2022-12-25T21:53:46.618Z,15.93
2022-12-25T21:58:51.038Z,16.07
2022-12-25T22:03:54.019Z,15.23
2022-12-25T22:08:57.957Z,16.03
2022-12-25T22:14:19.600Z,13.70
2022-12-25T22:19:43.808Z,17.40
2022-12-25T22:24:46.817Z,14.77
2022-12-25T22:29:51.580Z,16.50
2022-12-25T22:34:57.606Z,18.37
2022-12-25T22:40:02.433Z,17.87
2022-12-25T22:45:08.073Z,17.97
2022-12-25T22:50:12.619Z,20.30
2022-12-25T22:55:18.780Z,21.30
2022-12-25T23:00:25.485Z,23.40
2022-12-25T23:05:28.731Z,23.23
2022-12-25T23:10:31.887Z,24.90
2022-12-25T23:15:36.579Z,26.27
2022-12-25T23:20:57.157Z,26.77
2022-12-25T23:26:09.358Z,27.70
2022-12-25T23:31:13.844Z,24.93
2022-12-25T23:36:16.737Z,22.37
2022-12-25T23:41:20.448Z,25.47
2022-12-25T23:46:25.221Z,24.67
2022-12-25T23:51:28.488Z,24.20
2022-12-25T23:56:31.568Z,19.67
